sensor_id;sensor_type;location;lat;lon;timestamp;pressure;altitude;pressure_sealevel;temperature
58102;BMP280;52034;51.926;6.320;2023-11-19T00:00:59;100661.50;;;12.77
58102;BMP280;52034;51.926;6.320;2023-11-19T00:02:00;100654.50;;;12.78
58102;BMP280;52034;51.926;6.320;2023-11-19T00:03:01;100658.09;;;12.81
58102;BMP280;52034;51.926;6.320;2023-11-19T00:04:01;100663.06;;;12.82
58102;BMP280;52034;51.926;6.320;2023-11-19T00:05:05;100658.84;;;12.83
58102;BMP280;52034;51.926;6.320;2023-11-19T00:06:09;100644.81;;;12.85
58102;BMP280;52034;51.926;6.320;2023-11-19T00:07:11;100647.06;;;12.91
58102;BMP280;52034;51.926;6.320;2023-11-19T00:08:13;100651.94;;;12.88
58102;BMP280;52034;51.926;6.320;2023-11-19T00:09:13;100644.31;;;12.93
58102;BMP280;52034;51.926;6.320;2023-11-19T00:10:17;100647.22;;;12.97
58102;BMP280;52034;51.926;6.320;2023-11-19T00:11:21;100663.41;;;12.96
58102;BMP280;52034;51.926;6.320;2023-11-19T00:12:21;100649.31;;;12.96
58102;BMP280;52034;51.926;6.320;2023-11-19T00:13:22;100645.81;;;12.98
58102;BMP280;52034;51.926;6.320;2023-11-19T00:14:23;100650.16;;;13.01
58102;BMP280;52034;51.926;6.320;2023-11-19T00:15:25;100646.59;;;13.00
58102;BMP280;52034;51.926;6.320;2023-11-19T00:16:26;100636.72;;;12.99
58102;BMP280;52034;51.926;6.320;2023-11-19T00:17:26;100643.84;;;13.02
58102;BMP280;52034;51.926;6.320;2023-11-19T00:18:27;100649.47;;;13.02
58102;BMP280;52034;51.926;6.320;2023-11-19T00:19:27;100650.88;;;13.01
58102;BMP280;52034;51.926;6.320;2023-11-19T00:20:28;100639.53;;;12.99
58102;BMP280;52034;51.926;6.320;2023-11-19T00:21:31;100643.84;;;13.02
58102;BMP280;52034;51.926;6.320;2023-11-19T00:22:33;100645.22;;;13.01
58102;BMP280;52034;51.926;6.320;2023-11-19T00:23:34;100639.69;;;13.05
58102;BMP280;52034;51.926;6.320;2023-11-19T00:24:34;100639.69;;;13.05
58102;BMP280;52034;51.926;6.320;2023-11-19T00:25:34;100634.78;;;13.06
58102;BMP280;52034;51.926;6.320;2023-11-19T00:26:35;100634.81;;;13.08
58102;BMP280;52034;51.926;6.320;2023-11-19T00:27:36;100635.47;;;13.06
58102;BMP280;52034;51.926;6.320;2023-11-19T00:28:38;100636.84;;;13.05
58102;BMP280;52034;51.926;6.320;2023-11-19T00:29:41;100628.50;;;13.09
58102;BMP280;52034;51.926;6.320;2023-11-19T00:30:42;100627.09;;;13.08
58102;BMP280;52034;51.926;6.320;2023-11-19T00:31:43;100622.84;;;13.07
58102;BMP280;52034;51.926;6.320;2023-11-19T00:32:43;100620.00;;;13.07
58102;BMP280;52034;51.926;6.320;2023-11-19T00:33:44;100615.81;;;13.08
58102;BMP280;52034;51.926;6.320;2023-11-19T00:34:44;100618.72;;;13.12
58102;BMP280;52034;51.926;6.320;2023-11-19T00:35:45;100617.22;;;13.09
58102;BMP280;52034;51.926;6.320;2023-11-19T00:36:45;100615.13;;;13.10
58102;BMP280;52034;51.926;6.320;2023-11-19T00:37:46;100614.47;;;13.11
58102;BMP280;52034;51.926;6.320;2023-11-19T00:38:47;100611.69;;;13.13
58102;BMP280;52034;51.926;6.320;2023-11-19T00:39:48;100604.63;;;13.12
58102;BMP280;52034;51.926;6.320;2023-11-19T00:40:48;100612.41;;;13.14
58102;BMP280;52034;51.926;6.320;2023-11-19T00:41:49;100607.44;;;13.12
58102;BMP280;52034;51.926;6.320;2023-11-19T00:42:49;100608.88;;;13.13
58102;BMP280;52034;51.926;6.320;2023-11-19T00:43:49;100605.38;;;13.15
58102;BMP280;52034;51.926;6.320;2023-11-19T00:44:50;100609.63;;;13.16
58102;BMP280;52034;51.926;6.320;2023-11-19T00:45:51;100602.56;;;13.15
58102;BMP280;52034;51.926;6.320;2023-11-19T00:46:51;100600.50;;;13.17
58102;BMP280;52034;51.926;6.320;2023-11-19T00:47:52;100618.91;;;13.20
58102;BMP280;52034;51.926;6.320;2023-11-19T00:48:52;100619.59;;;13.19
58102;BMP280;52034;51.926;6.320;2023-11-19T00:49:53;100625.22;;;13.19
58102;BMP280;52034;51.926;6.320;2023-11-19T00:50:53;100619.66;;;13.23
58102;BMP280;52034;51.926;6.320;2023-11-19T00:51:54;100621.09;;;13.24
58102;BMP280;52034;51.926;6.320;2023-11-19T00:52:54;100624.66;;;13.26
58102;BMP280;52034;51.926;6.320;2023-11-19T00:53:54;100619.00;;;13.24
58102;BMP280;52034;51.926;6.320;2023-11-19T00:54:55;100618.34;;;13.26
58102;BMP280;52034;51.926;6.320;2023-11-19T00:55:57;100617.59;;;13.25
58102;BMP280;52034;51.926;6.320;2023-11-19T00:56:57;100609.91;;;13.28
58102;BMP280;52034;51.926;6.320;2023-11-19T00:57:57;100609.28;;;13.31
58102;BMP280;52034;51.926;6.320;2023-11-19T00:58:58;100603.72;;;13.33
58102;BMP280;52034;51.926;6.320;2023-11-19T01:00:00;100596.00;;;13.36
58102;BMP280;52034;51.926;6.320;2023-11-19T01:01:00;100609.44;;;13.37
58102;BMP280;52034;51.926;6.320;2023-11-19T01:02:01;100596.00;;;13.36
58102;BMP280;52034;51.926;6.320;2023-11-19T01:03:03;100597.34;;;13.33
58102;BMP280;52034;51.926;6.320;2023-11-19T01:04:04;100592.44;;;13.35
58102;BMP280;52034;51.926;6.320;2023-11-19T01:05:04;100598.81;;;13.36
58102;BMP280;52034;51.926;6.320;2023-11-19T01:06:05;100599.50;;;13.34
58102;BMP280;52034;51.926;6.320;2023-11-19T01:07:06;100601.66;;;13.38
58102;BMP280;52034;51.926;6.320;2023-11-19T01:08:06;100599.66;;;13.40
58102;BMP280;52034;51.926;6.320;2023-11-19T01:09:08;100595.38;;;13.39
58102;BMP280;52034;51.926;6.320;2023-11-19T01:10:08;100605.94;;;13.39
58102;BMP280;52034;51.926;6.320;2023-11-19T01:11:19;100591.13;;;13.38
58102;BMP280;52034;51.926;6.320;2023-11-19T01:12:21;100594.00;;;13.40
58102;BMP280;52034;51.926;6.320;2023-11-19T01:13:21;100585.47;;;13.38
58102;BMP280;52034;51.926;6.320;2023-11-19T01:14:21;100583.38;;;13.39
58102;BMP280;52034;51.926;6.320;2023-11-19T01:15:22;100575.59;;;13.37
58102;BMP280;52034;51.926;6.320;2023-11-19T01:16:23;100584.81;;;13.40
58102;BMP280;52034;51.926;6.320;2023-11-19T01:17:23;100559.34;;;13.36
58102;BMP280;52034;51.926;6.320;2023-11-19T01:18:23;100553.03;;;13.37
58102;BMP280;52034;51.926;6.320;2023-11-19T01:19:24;100560.06;;;13.36
58102;BMP280;52034;51.926;6.320;2023-11-19T01:20:24;100562.16;;;13.36
58102;BMP280;52034;51.926;6.320;2023-11-19T01:21:25;100557.75;;;13.27
58102;BMP280;52034;51.926;6.320;2023-11-19T01:22:26;100574.06;;;13.32
58102;BMP280;52034;51.926;6.320;2023-11-19T01:23:26;100571.22;;;13.30
58102;BMP280;52034;51.926;6.320;2023-11-19T01:24:27;100571.31;;;13.34
58102;BMP280;52034;51.926;6.320;2023-11-19T01:25:29;100575.53;;;13.35
58102;BMP280;52034;51.926;6.320;2023-11-19T01:26:29;100574.16;;;13.36
58102;BMP280;52034;51.926;6.320;2023-11-19T01:27:30;100574.81;;;13.35
58102;BMP280;52034;51.926;6.320;2023-11-19T01:28:30;100581.94;;;13.38
58102;BMP280;52034;51.926;6.320;2023-11-19T01:29:31;100578.41;;;13.37
58102;BMP280;52034;51.926;6.320;2023-11-19T01:30:31;100586.91;;;13.39
58102;BMP280;52034;51.926;6.320;2023-11-19T01:31:31;100574.94;;;13.39
58102;BMP280;52034;51.926;6.320;2023-11-19T01:32:34;100582.00;;;13.40
58102;BMP280;52034;51.926;6.320;2023-11-19T01:33:37;100569.28;;;13.39
58102;BMP280;52034;51.926;6.320;2023-11-19T01:34:37;100578.44;;;13.39
58102;BMP280;52034;51.926;6.320;2023-11-19T01:35:38;100579.84;;;13.38
58102;BMP280;52034;51.926;6.320;2023-11-19T01:36:38;100567.13;;;13.37
58102;BMP280;52034;51.926;6.320;2023-11-19T01:37:39;100582.66;;;13.38
58102;BMP280;52034;51.926;6.320;2023-11-19T01:38:39;100579.84;;;13.38
58102;BMP280;52034;51.926;6.320;2023-11-19T01:39:40;100578.41;;;13.37
58102;BMP280;52034;51.926;6.320;2023-11-19T01:40:40;100586.91;;;13.39
58102;BMP280;52034;51.926;6.320;2023-11-19T01:41:40;100589.75;;;13.41
58102;BMP280;52034;51.926;6.320;2023-11-19T01:42:41;100589.75;;;13.41
58102;BMP280;52034;51.926;6.320;2023-11-19T01:43:41;100588.38;;;13.40
58102;BMP280;52034;51.926;6.320;2023-11-19T01:44:42;100584.19;;;13.43
58102;BMP280;52034;51.926;6.320;2023-11-19T01:45:42;100577.88;;;13.45
58102;BMP280;52034;51.926;6.320;2023-11-19T01:46:45;100583.56;;;13.47
58102;BMP280;52034;51.926;6.320;2023-11-19T01:47:48;100579.31;;;13.46
58102;BMP280;52034;51.926;6.320;2023-11-19T01:48:48;100589.88;;;13.45
58102;BMP280;52034;51.926;6.320;2023-11-19T01:49:48;100588.50;;;13.46
58102;BMP280;52034;51.926;6.320;2023-11-19T01:50:49;100594.13;;;13.46
58102;BMP280;52034;51.926;6.320;2023-11-19T01:51:50;100586.38;;;13.47
58102;BMP280;52034;51.926;6.320;2023-11-19T01:52:54;100572.94;;;13.45
58102;BMP280;52034;51.926;6.320;2023-11-19T01:53:56;100568.75;;;13.48
58102;BMP280;52034;51.926;6.320;2023-11-19T01:54:57;100580.03;;;13.46
58102;BMP280;52034;51.926;6.320;2023-11-19T01:55:58;100575.09;;;13.47
58102;BMP280;52034;51.926;6.320;2023-11-19T01:56:59;100566.63;;;13.47
58102;BMP280;52034;51.926;6.320;2023-11-19T01:58:01;100570.84;;;13.46
58102;BMP280;52034;51.926;6.320;2023-11-19T01:59:02;100566.59;;;13.45
58102;BMP280;52034;51.926;6.320;2023-11-19T02:00:03;100565.94;;;13.46
58102;BMP280;52034;51.926;6.320;2023-11-19T02:01:14;100568.69;;;13.44
58102;BMP280;52034;51.926;6.320;2023-11-19T02:02:15;100561.66;;;13.45
58102;BMP280;52034;51.926;6.320;2023-11-19T02:03:16;100561.66;;;13.45
58102;BMP280;52034;51.926;6.320;2023-11-19T02:04:16;100559.56;;;13.46
58102;BMP280;52034;51.926;6.320;2023-11-19T02:05:17;100558.19;;;13.47
58102;BMP280;52034;51.926;6.320;2023-11-19T02:06:17;100563.13;;;13.48
58102;BMP280;52034;51.926;6.320;2023-11-19T02:07:18;100550.41;;;13.47
58102;BMP280;52034;51.926;6.320;2023-11-19T02:08:18;100545.50;;;13.48
58102;BMP280;52034;51.926;6.320;2023-11-19T02:09:20;100560.22;;;13.44
58102;BMP280;52034;51.926;6.320;2023-11-19T02:10:21;100556.63;;;13.40
58102;BMP280;52034;51.926;6.320;2023-11-19T02:11:25;100558.75;;;13.41
58102;BMP280;52034;51.926;6.320;2023-11-19T02:12:29;100555.25;;;13.43
58102;BMP280;52034;51.926;6.320;2023-11-19T02:13:29;100548.22;;;13.44
58102;BMP280;52034;51.926;6.320;2023-11-19T02:14:30;100560.28;;;13.46
58102;BMP280;52034;51.926;6.320;2023-11-19T02:15:31;100562.38;;;13.46
58102;BMP280;52034;51.926;6.320;2023-11-19T02:16:32;100558.84;;;13.45
58102;BMP280;52034;51.926;6.320;2023-11-19T02:17:32;100551.78;;;13.44
58102;BMP280;52034;51.926;6.320;2023-11-19T02:18:34;100551.78;;;13.44
58102;BMP280;52034;51.926;6.320;2023-11-19T02:19:34;100555.31;;;13.45
58102;BMP280;52034;51.926;6.320;2023-11-19T02:20:35;100547.56;;;13.45
58102;BMP280;52034;51.926;6.320;2023-11-19T02:21:35;100537.59;;;13.40
58102;BMP280;52034;51.926;6.320;2023-11-19T02:22:35;100544.06;;;13.47
58102;BMP280;52034;51.926;6.320;2023-11-19T02:23:36;100543.31;;;13.44
58102;BMP280;52034;51.926;6.320;2023-11-19T02:24:36;100536.94;;;13.44
58102;BMP280;52034;51.926;6.320;2023-11-19T02:25:38;100533.47;;;13.45
58102;BMP280;52034;51.926;6.320;2023-11-19T02:26:39;100537.00;;;13.46
58102;BMP280;52034;51.926;6.320;2023-11-19T02:27:52;100533.47;;;13.45
58102;BMP280;52034;51.926;6.320;2023-11-19T02:28:55;100534.78;;;13.42
58102;BMP280;52034;51.926;6.320;2023-11-19T02:29:56;100539.09;;;13.45
58102;BMP280;52034;51.926;6.320;2023-11-19T02:30:57;100534.91;;;13.46
58102;BMP280;52034;51.926;6.320;2023-11-19T02:31:58;100538.41;;;13.45
58102;BMP280;52034;51.926;6.320;2023-11-19T02:32:59;100539.88;;;13.48
58102;BMP280;52034;51.926;6.320;2023-11-19T02:34:01;100533.56;;;13.49
58102;BMP280;52034;51.926;6.320;2023-11-19T02:35:02;100544.16;;;13.51
58102;BMP280;52034;51.926;6.320;2023-11-19T02:36:07;100539.22;;;13.51
58102;BMP280;52034;51.926;6.320;2023-11-19T02:37:08;100534.25;;;13.50
58102;BMP280;52034;51.926;6.320;2023-11-19T02:38:10;100539.97;;;13.54
58102;BMP280;52034;51.926;6.320;2023-11-19T02:39:11;100533.66;;;13.55
58102;BMP280;52034;51.926;6.320;2023-11-19T02:40:12;100533.63;;;13.53
58102;BMP280;52034;51.926;6.320;2023-11-19T02:41:14;100531.41;;;13.48
58102;BMP280;52034;51.926;6.320;2023-11-19T02:42:14;100537.13;;;13.52
58102;BMP280;52034;51.926;6.320;2023-11-19T02:43:15;100530.78;;;13.51
58102;BMP280;52034;51.926;6.320;2023-11-19T02:44:15;100543.50;;;13.54
58102;BMP280;52034;51.926;6.320;2023-11-19T02:45:16;100534.31;;;13.54
58102;BMP280;52034;51.926;6.320;2023-11-19T02:46:16;100536.53;;;13.57
58102;BMP280;52034;51.926;6.320;2023-11-19T02:47:17;100526.00;;;13.60
58102;BMP280;52034;51.926;6.320;2023-11-19T02:48:21;100532.34;;;13.60
58102;BMP280;52034;51.926;6.320;2023-11-19T02:49:22;100536.53;;;13.57
58102;BMP280;52034;51.926;6.320;2023-11-19T02:50:22;100530.84;;;13.55
58102;BMP280;52034;51.926;6.320;2023-11-19T02:51:25;100538.63;;;13.57
58102;BMP280;52034;51.926;6.320;2023-11-19T02:52:25;100537.97;;;13.58
58102;BMP280;52034;51.926;6.320;2023-11-19T02:53:25;100535.13;;;13.58
58102;BMP280;52034;51.926;6.320;2023-11-19T02:54:29;100537.94;;;13.56
58102;BMP280;52034;51.926;6.320;2023-11-19T02:55:29;100533.78;;;13.59
58102;BMP280;52034;51.926;6.320;2023-11-19T02:56:36;100535.88;;;13.59
58102;BMP280;52034;51.926;6.320;2023-11-19T02:57:38;100539.41;;;13.59
58102;BMP280;52034;51.926;6.320;2023-11-19T02:58:42;100543.63;;;13.60
58102;BMP280;52034;51.926;6.320;2023-11-19T02:59:44;100535.13;;;13.58
58102;BMP280;52034;51.926;6.320;2023-11-19T03:00:45;100547.19;;;13.61
58102;BMP280;52034;51.926;6.320;2023-11-19T03:01:52;100535.91;;;13.61
58102;BMP280;52034;51.926;6.320;2023-11-19T03:02:53;100553.53;;;13.61
58102;BMP280;52034;51.926;6.320;2023-11-19T03:04:00;100546.47;;;13.60
58102;BMP280;52034;51.926;6.320;2023-11-19T03:05:01;100544.38;;;13.61
58102;BMP280;52034;51.926;6.320;2023-11-19T03:06:02;100533.13;;;13.63
58102;BMP280;52034;51.926;6.320;2023-11-19T03:07:06;100545.81;;;13.64
58102;BMP280;52034;51.926;6.320;2023-11-19T03:08:09;100548.59;;;13.62
58102;BMP280;52034;51.926;6.320;2023-11-19T03:09:10;100540.09;;;13.58
58102;BMP280;52034;51.926;6.320;2023-11-19T03:10:11;100544.28;;;13.57
58102;BMP280;52034;51.926;6.320;2023-11-19T03:11:15;100542.19;;;13.57
58102;BMP280;52034;51.926;6.320;2023-11-19T03:12:15;100548.47;;;13.56
58102;BMP280;52034;51.926;6.320;2023-11-19T03:13:16;100532.31;;;13.58
58102;BMP280;52034;51.926;6.320;2023-11-19T03:14:19;100542.25;;;13.59
58102;BMP280;52034;51.926;6.320;2023-11-19T03:15:19;100536.59;;;13.59
58102;BMP280;52034;51.926;6.320;2023-11-19T03:16:21;100529.41;;;13.54
58102;BMP280;52034;51.926;6.320;2023-11-19T03:17:21;100532.97;;;13.55
58102;BMP280;52034;51.926;6.320;2023-11-19T03:18:25;100537.94;;;13.56
58102;BMP280;52034;51.926;6.320;2023-11-19T03:19:25;100533.63;;;13.53
58102;BMP280;52034;51.926;6.320;2023-11-19T03:20:27;100541.41;;;13.55
58102;BMP280;52034;51.926;6.320;2023-11-19T03:21:30;100552.69;;;13.55
58102;BMP280;52034;51.926;6.320;2023-11-19T03:22:31;100547.06;;;13.55
58102;BMP280;52034;51.926;6.320;2023-11-19T03:23:34;100547.06;;;13.55
58102;BMP280;52034;51.926;6.320;2023-11-19T03:24:35;100542.13;;;13.55
58102;BMP280;52034;51.926;6.320;2023-11-19T03:25:36;100556.94;;;13.56
58102;BMP280;52034;51.926;6.320;2023-11-19T03:26:37;100544.19;;;13.53
58102;BMP280;52034;51.926;6.320;2023-11-19T03:27:38;100537.88;;;13.54
58102;BMP280;52034;51.926;6.320;2023-11-19T03:28:39;100534.31;;;13.54
58102;BMP280;52034;51.926;6.320;2023-11-19T03:29:39;100535.00;;;13.52
58102;BMP280;52034;51.926;6.320;2023-11-19T03:30:39;100542.09;;;13.53
58102;BMP280;52034;51.926;6.320;2023-11-19T03:31:43;100544.19;;;13.53
58102;BMP280;52034;51.926;6.320;2023-11-19T03:32:43;100545.59;;;13.52
58102;BMP280;52034;51.926;6.320;2023-11-19T03:33:44;100534.97;;;13.50
58102;BMP280;52034;51.926;6.320;2023-11-19T03:34:45;100539.19;;;13.49
58102;BMP280;52034;51.926;6.320;2023-11-19T03:35:45;100546.19;;;13.48
58102;BMP280;52034;51.926;6.320;2023-11-19T03:36:46;100543.38;;;13.48
58102;BMP280;52034;51.926;6.320;2023-11-19T03:37:46;100549.03;;;13.48
58102;BMP280;52034;51.926;6.320;2023-11-19T03:38:50;100550.47;;;13.49
58102;BMP280;52034;51.926;6.320;2023-11-19T03:39:50;100546.19;;;13.48
58102;BMP280;52034;51.926;6.320;2023-11-19T03:40:51;100543.38;;;13.48
58102;BMP280;52034;51.926;6.320;2023-11-19T03:41:52;100546.94;;;13.49
58102;BMP280;52034;51.926;6.320;2023-11-19T03:42:58;100550.38;;;13.45
58102;BMP280;52034;51.926;6.320;2023-11-19T03:43:58;100547.56;;;13.45
58102;BMP280;52034;51.926;6.320;2023-11-19T03:44:59;100550.38;;;13.45
58102;BMP280;52034;51.926;6.320;2023-11-19T03:46:00;100547.59;;;13.47
58102;BMP280;52034;51.926;6.320;2023-11-19T03:47:00;100541.94;;;13.47
58102;BMP280;52034;51.926;6.320;2023-11-19T03:48:01;100550.38;;;13.45
58102;BMP280;52034;51.926;6.320;2023-11-19T03:49:01;100548.22;;;13.44
58102;BMP280;52034;51.926;6.320;2023-11-19T03:50:02;100548.88;;;13.40
58102;BMP280;52034;51.926;6.320;2023-11-19T03:51:03;100558.81;;;13.43
58102;BMP280;52034;51.926;6.320;2023-11-19T03:52:04;100557.47;;;13.46
58102;BMP280;52034;51.926;6.320;2023-11-19T03:53:05;100551.84;;;13.46
58102;BMP280;52034;51.926;6.320;2023-11-19T03:54:05;100550.28;;;13.41
58102;BMP280;52034;51.926;6.320;2023-11-19T03:55:07;100546.00;;;13.38
58102;BMP280;52034;51.926;6.320;2023-11-19T03:56:09;100544.66;;;13.41
58102;BMP280;52034;51.926;6.320;2023-11-19T03:57:10;100550.88;;;13.36
58102;BMP280;52034;51.926;6.320;2023-11-19T03:58:12;100562.88;;;13.36
58102;BMP280;52034;51.926;6.320;2023-11-19T03:59:12;100557.22;;;13.34
58102;BMP280;52034;51.926;6.320;2023-11-19T04:00:13;100556.38;;;13.30
58102;BMP280;52034;51.926;6.320;2023-11-19T04:01:14;100546.50;;;13.29
58102;BMP280;52034;51.926;6.320;2023-11-19T04:02:15;100552.09;;;13.27
58102;BMP280;52034;51.926;6.320;2023-11-19T04:03:15;100549.22;;;13.25
58102;BMP280;52034;51.926;6.320;2023-11-19T04:04:16;100555.53;;;13.23
58102;BMP280;52034;51.926;6.320;2023-11-19T04:05:16;100564.63;;;13.20
58102;BMP280;52034;51.926;6.320;2023-11-19T04:06:19;100552.56;;;13.15
58102;BMP280;52034;51.926;6.320;2023-11-19T04:07:19;100556.03;;;13.14
58102;BMP280;52034;51.926;6.320;2023-11-19T04:08:20;100563.75;;;13.13
58102;BMP280;52034;51.926;6.320;2023-11-19T04:09:20;100557.38;;;13.11
58102;BMP280;52034;51.926;6.320;2023-11-19T04:10:21;100559.44;;;13.08
58102;BMP280;52034;51.926;6.320;2023-11-19T04:11:22;100560.78;;;13.05
58102;BMP280;52034;51.926;6.320;2023-11-19T04:12:23;100554.31;;;13.01
58102;BMP280;52034;51.926;6.320;2023-11-19T04:13:23;100558.56;;;13.02
58102;BMP280;52034;51.926;6.320;2023-11-19T04:14:24;100552.16;;;12.99
58102;BMP280;52034;51.926;6.320;2023-11-19T04:15:25;100552.16;;;12.99
58102;BMP280;52034;51.926;6.320;2023-11-19T04:16:27;100544.38;;;12.96
58102;BMP280;52034;51.926;6.320;2023-11-19T04:17:28;100545.72;;;12.95
58102;BMP280;52034;51.926;6.320;2023-11-19T04:18:29;100549.16;;;12.91
58102;BMP280;52034;51.926;6.320;2023-11-19T04:19:29;100550.53;;;12.88
58102;BMP280;52034;51.926;6.320;2023-11-19T04:20:31;100549.78;;;12.88
58102;BMP280;52034;51.926;6.320;2023-11-19T04:21:32;100548.38;;;12.87
58102;BMP280;52034;51.926;6.320;2023-11-19T04:22:32;100542.00;;;12.86
58102;BMP280;52034;51.926;6.320;2023-11-19T04:23:33;100535.72;;;12.88
58102;BMP280;52034;51.926;6.320;2023-11-19T04:24:33;100537.69;;;12.81
58102;BMP280;52034;51.926;6.320;2023-11-19T04:25:35;100544.00;;;12.82
58102;BMP280;52034;51.926;6.320;2023-11-19T04:26:35;100546.78;;;12.80
58102;BMP280;52034;51.926;6.320;2023-11-19T04:27:36;100539.69;;;12.79
58102;BMP280;52034;51.926;6.320;2023-11-19T04:28:37;100551.03;;;12.81
58102;BMP280;52034;51.926;6.320;2023-11-19T04:29:37;100539.63;;;12.75
58102;BMP280;52034;51.926;6.320;2023-11-19T04:30:38;100550.28;;;12.78
58102;BMP280;52034;51.926;6.320;2023-11-19T04:31:38;100548.81;;;12.77
58102;BMP280;52034;51.926;6.320;2023-11-19T04:32:39;100553.09;;;12.78
58102;BMP280;52034;51.926;6.320;2023-11-19T04:33:39;100556.59;;;12.79
58102;BMP280;52034;51.926;6.320;2023-11-19T04:34:40;100563.63;;;12.78
58102;BMP280;52034;51.926;6.320;2023-11-19T04:35:40;100560.00;;;12.73
58102;BMP280;52034;51.926;6.320;2023-11-19T04:36:41;100558.56;;;12.72
58102;BMP280;52034;51.926;6.320;2023-11-19T04:37:42;100565.63;;;12.73
58102;BMP280;52034;51.926;6.320;2023-11-19T04:38:42;100567.09;;;12.74
58102;BMP280;52034;51.926;6.320;2023-11-19T04:39:44;100567.03;;;12.72
58102;BMP280;52034;51.926;6.320;2023-11-19T04:40:44;100562.06;;;12.71
58102;BMP280;52034;51.926;6.320;2023-11-19T04:41:46;100551.47;;;12.69
58102;BMP280;52034;51.926;6.320;2023-11-19T04:42:48;100555.69;;;12.70
58102;BMP280;52034;51.926;6.320;2023-11-19T04:43:48;100560.66;;;12.70
58102;BMP280;52034;51.926;6.320;2023-11-19T04:44:49;100560.56;;;12.68
58102;BMP280;52034;51.926;6.320;2023-11-19T04:45:49;100563.31;;;12.66
58102;BMP280;52034;51.926;6.320;2023-11-19T04:46:49;100566.88;;;12.66
58102;BMP280;52034;51.926;6.320;2023-11-19T04:47:50;100571.03;;;12.63
58102;BMP280;52034;51.926;6.320;2023-11-19T04:48:50;100567.59;;;12.67
58102;BMP280;52034;51.926;6.320;2023-11-19T04:49:50;100561.84;;;12.63
58102;BMP280;52034;51.926;6.320;2023-11-19T04:50:51;100563.25;;;12.62
58102;BMP280;52034;51.926;6.320;2023-11-19T04:51:52;100568.88;;;12.62
58102;BMP280;52034;51.926;6.320;2023-11-19T04:52:53;100562.53;;;12.61
58102;BMP280;52034;51.926;6.320;2023-11-19T04:53:55;100571.03;;;12.63
58102;BMP280;52034;51.926;6.320;2023-11-19T04:54:56;100563.84;;;12.58
58102;BMP280;52034;51.926;6.320;2023-11-19T04:55:56;100564.56;;;12.59
58102;BMP280;52034;51.926;6.320;2023-11-19T04:56:57;100552.59;;;12.58
58102;BMP280;52034;51.926;6.320;2023-11-19T04:57:57;100549.75;;;12.56
58102;BMP280;52034;51.926;6.320;2023-11-19T04:58:57;100560.94;;;12.54
58102;BMP280;52034;51.926;6.320;2023-11-19T04:59:58;100562.38;;;12.55
58102;BMP280;52034;51.926;6.320;2023-11-19T05:00:59;100551.81;;;12.56
58102;BMP280;52034;51.926;6.320;2023-11-19T05:01:59;100559.66;;;12.59
58102;BMP280;52034;51.926;6.320;2023-11-19T05:03:00;100552.59;;;12.58
58102;BMP280;52034;51.926;6.320;2023-11-19T05:04:00;100556.09;;;12.57
58102;BMP280;52034;51.926;6.320;2023-11-19T05:05:01;100558.22;;;12.58
58102;BMP280;52034;51.926;6.320;2023-11-19T05:06:04;100556.75;;;12.55
58102;BMP280;52034;51.926;6.320;2023-11-19T05:07:05;100556.75;;;12.55
58102;BMP280;52034;51.926;6.320;2023-11-19T05:08:05;100561.66;;;12.55
58102;BMP280;52034;51.926;6.320;2023-11-19T05:09:05;100555.97;;;12.53
58102;BMP280;52034;51.926;6.320;2023-11-19T05:10:08;100563.75;;;12.54
58102;BMP280;52034;51.926;6.320;2023-11-19T05:11:08;100570.03;;;12.53
58102;BMP280;52034;51.926;6.320;2023-11-19T05:12:12;100570.78;;;12.53
58102;BMP280;52034;51.926;6.320;2023-11-19T05:13:12;100579.88;;;12.52
58102;BMP280;52034;51.926;6.320;2023-11-19T05:14:12;100571.44;;;12.52
58102;BMP280;52034;51.926;6.320;2023-11-19T05:15:13;100579.16;;;12.51
58102;BMP280;52034;51.926;6.320;2023-11-19T05:16:14;100579.88;;;12.52
58102;BMP280;52034;51.926;6.320;2023-11-19T05:17:16;100584.03;;;12.49
58102;BMP280;52034;51.926;6.320;2023-11-19T05:18:18;100575.53;;;12.47
58102;BMP280;52034;51.926;6.320;2023-11-19T05:19:18;100581.09;;;12.45
58102;BMP280;52034;51.926;6.320;2023-11-19T05:20:18;100569.13;;;12.44
58102;BMP280;52034;51.926;6.320;2023-11-19T05:21:19;100569.13;;;12.44
58102;BMP280;52034;51.926;6.320;2023-11-19T05:22:19;100563.47;;;12.44
58102;BMP280;52034;51.926;6.320;2023-11-19T05:23:20;100562.66;;;12.40
58102;BMP280;52034;51.926;6.320;2023-11-19T05:24:21;100577.56;;;12.44
58102;BMP280;52034;51.926;6.320;2023-11-19T05:25:22;100569.84;;;12.45
58102;BMP280;52034;51.926;6.320;2023-11-19T05:26:23;100567.03;;;12.45
58102;BMP280;52034;51.926;6.320;2023-11-19T05:27:23;100563.47;;;12.44
58102;BMP280;52034;51.926;6.320;2023-11-19T05:28:24;100564.91;;;12.43
58102;BMP280;52034;51.926;6.320;2023-11-19T05:29:26;100566.28;;;12.42
58102;BMP280;52034;51.926;6.320;2023-11-19T05:30:27;100563.47;;;12.42
58102;BMP280;52034;51.926;6.320;2023-11-19T05:31:27;100569.03;;;12.40
58102;BMP280;52034;51.926;6.320;2023-11-19T05:32:27;100563.31;;;12.38
58102;BMP280;52034;51.926;6.320;2023-11-19T05:33:28;100568.88;;;12.34
58102;BMP280;52034;51.926;6.320;2023-11-19T05:34:28;100574.56;;;12.36
58102;BMP280;52034;51.926;6.320;2023-11-19T05:35:29;100571.03;;;12.36
58102;BMP280;52034;51.926;6.320;2023-11-19T05:36:29;100571.69;;;12.34
58102;BMP280;52034;51.926;6.320;2023-11-19T05:37:30;100570.84;;;12.30
58102;BMP280;52034;51.926;6.320;2023-11-19T05:38:30;100563.19;;;12.32
58102;BMP280;52034;51.926;6.320;2023-11-19T05:39:31;100575.88;;;12.33
58102;BMP280;52034;51.926;6.320;2023-11-19T05:40:31;100573.06;;;12.33
58102;BMP280;52034;51.926;6.320;2023-11-19T05:41:32;100578.69;;;12.33
58102;BMP280;52034;51.926;6.320;2023-11-19T05:42:32;100568.88;;;12.34
58102;BMP280;52034;51.926;6.320;2023-11-19T05:43:33;100575.94;;;12.35
58102;BMP280;52034;51.926;6.320;2023-11-19T05:44:33;100580.13;;;12.34
58102;BMP280;52034;51.926;6.320;2023-11-19T05:45:33;100577.31;;;12.34
58102;BMP280;52034;51.926;6.320;2023-11-19T05:46:34;100581.72;;;12.41
58102;BMP280;52034;51.926;6.320;2023-11-19T05:47:41;100591.63;;;12.42